Terminal Aerodrome Forecast
Issued by NWS

Home | Current Version | Previous Version | Text Only | Print | Product List | Glossary Off
Versions: 1 2 3 4 5 6 7 8 9 10 11 12 13 14 15 16 17 18 19 20 21 22 23 24 25 26 27 28 29 30 31 32 33 34 35 36 37 38

000
FTUS43 KGRB 251743
TAFATW
TAF
KATW 251743Z 2518/2618 27011KT P6SM VCSH BKN040
      TEMPO 2518/2522 -SHRA
     FM252200 29007KT P6SM SCT035 BKN050
      TEMPO 2522/2602 -SHRA BKN035
     FM260600 30007KT P6SM BKN060
     FM261200 31010G15KT P6SM BKN022=

USA.gov is the U.S. government's official web portal to all federal, state and local government web resources and services.